Time;durP1;ratioP1;P1;durP2;ratioP2;P2;SDS_P1;SDS_P2;PMS_P1;PMS_P2;Temp;Humidity;BMP_temperature;BMP_pressure;BME280_temperature;BME280_humidity;BME280_pressure;Samples;Min_cycle;Max_cycle;Signal;HPM_P1;HPM_P2
2023/01/15 00:02:22;;;;;;;10.98;3.10;;;9.30;99.90;;;9.29;100.00;98843.75;4963842;28;20228;-78
2023/01/15 00:04:52;;;;;;;7.38;2.33;;;9.30;99.90;;;9.29;100.00;98833.22;4962712;28;20243;-79
2023/01/15 00:07:19;;;;;;;6.07;1.90;;;9.30;99.90;;;9.30;100.00;98836.72;4966286;28;20237;-77
2023/01/15 00:09:46;;;;;;;8.13;2.30;;;9.30;99.90;;;9.34;100.00;98827.88;4964534;28;20249;-78
2023/01/15 00:12:13;;;;;;;8.02;2.33;;;9.30;99.90;;;9.32;100.00;98827.03;4967621;28;20299;-78
2023/01/15 00:14:40;;;;;;;9.75;2.80;;;9.30;99.90;;;9.33;100.00;98825.25;4962438;28;20319;-79
2023/01/15 00:17:07;;;;;;;7.57;2.15;;;9.30;99.90;;;9.35;100.00;98823.47;4965243;28;20272;-78
2023/01/15 00:19:34;;;;;;;11.38;3.28;;;9.30;99.90;;;9.36;100.00;98818.19;4968097;28;20812;-77
2023/01/15 00:22:01;;;;;;;7.75;2.28;;;9.30;99.90;;;9.36;100.00;98805.00;4968147;28;20324;-79
2023/01/15 00:29:59;;;;;;;7.97;2.38;;;9.40;99.90;;;9.38;100.00;98797.94;4962682;28;20257;-79
2023/01/15 00:32:28;;;;;;;9.07;2.63;;;9.40;99.90;;;9.39;100.00;98789.13;4964584;28;20303;-77
2023/01/15 00:34:58;;;;;;;10.52;3.10;;;9.40;99.90;;;9.41;100.00;98791.75;4965481;28;20237;-78
2023/01/15 00:37:25;;;;;;;9.68;2.75;;;9.40;99.90;;;9.43;100.00;98797.88;4962551;28;20244;-78
2023/01/15 00:39:52;;;;;;;9.23;2.67;;;9.40;99.90;;;9.43;100.00;98801.38;4965554;28;20237;-78
2023/01/15 00:42:19;;;;;;;6.90;2.05;;;9.40;99.90;;;9.45;100.00;98801.38;4969805;28;20245;-78
2023/01/15 00:44:46;;;;;;;7.68;2.25;;;9.40;99.90;;;9.48;100.00;98803.97;4960874;28;20244;-76
2023/01/15 00:47:14;;;;;;;9.30;2.72;;;9.50;99.90;;;9.46;100.00;98803.13;4968001;28;20292;-78
2023/01/15 00:49:41;;;;;;;7.22;2.17;;;9.50;99.90;;;9.48;100.00;98811.88;4969662;28;20232;-78
2023/01/15 00:52:10;;;;;;;6.50;1.98;;;9.50;99.90;;;9.47;100.00;98803.09;4969216;28;20221;-78
2023/01/15 00:54:37;;;;;;;9.23;2.72;;;9.50;99.90;;;9.47;100.00;98807.50;4963244;28;20299;-77
2023/01/15 00:57:04;;;;;;;7.50;2.38;;;9.40;99.90;;;9.42;100.00;98797.00;4963019;28;20288;-77
2023/01/15 00:59:31;;;;;;;12.75;3.67;;;9.40;99.90;;;9.44;100.00;98791.72;4962164;28;20689;-77
2023/01/15 01:01:58;;;;;;;15.50;4.30;;;9.40;99.90;;;9.46;100.00;98800.47;4963068;28;20316;-76
2023/01/15 01:04:25;;;;;;;10.75;3.00;;;9.50;99.90;;;9.45;100.00;98802.25;4962702;28;20233;-77
2023/01/15 01:06:53;;;;;;;8.75;2.53;;;9.40;99.90;;;9.45;100.00;98806.66;4964058;28;20233;-78
2023/01/15 01:09:20;;;;;;;8.70;2.55;;;9.40;99.90;;;9.45;100.00;98794.31;4961444;28;20609;-77
2023/01/15 01:11:48;;;;;;;11.60;3.63;;;9.40;99.90;;;9.45;100.00;98796.97;4963734;28;20312;-78
2023/01/15 01:14:15;;;;;;;7.95;2.30;;;9.40;99.90;;;9.42;100.00;98789.09;4967078;28;20233;-77
2023/01/15 01:16:44;;;;;;;6.22;1.83;;;9.40;99.90;;;9.45;100.00;98783.78;4960947;28;20226;-77
2023/01/15 01:19:16;;;;;;;6.45;1.95;;;9.50;99.90;;;9.46;100.00;98774.97;4963704;28;20229;-78
2023/01/15 01:21:44;;;;;;;8.27;2.40;;;9.40;99.90;;;9.47;100.00;98773.19;4970261;28;20244;-77
2023/01/15 01:24:15;;;;;;;8.50;2.42;;;9.40;99.90;;;9.46;100.00;98782.88;4970175;28;20229;-79
2023/01/15 01:26:45;;;;;;;6.57;1.95;;;9.50;99.90;;;9.47;100.00;98776.72;4966648;28;20296;-78
2023/01/15 01:29:15;;;;;;;5.28;1.70;;;9.50;99.90;;;9.49;100.00;98772.28;4967420;28;20252;-78
2023/01/15 01:31:42;;;;;;;7.35;2.22;;;9.50;99.90;;;9.46;100.00;98758.25;4971430;28;20252;-78
2023/01/15 01:34:11;;;;;;;7.75;2.30;;;9.50;99.90;;;9.49;100.00;98780.19;4978184;28;20252;-78
2023/01/15 01:36:41;;;;;;;6.13;1.90;;;9.50;99.90;;;9.46;100.00;98782.88;4980037;28;20435;-77
2023/01/15 01:39:15;;;;;;;10.98;3.17;;;9.40;99.90;;;9.46;100.00;98764.41;4973756;28;20296;-77
2023/01/15 01:41:42;;;;;;;5.20;1.50;;;9.40;99.90;;;9.47;100.00;98775.84;4979564;28;20303;-77
2023/01/15 01:44:31;;;;;;;8.02;2.30;;;9.40;99.90;;;9.43;100.00;98763.59;4973697;28;20256;-77
2023/01/15 01:47:14;;;;;;;13.23;3.67;;;9.40;99.90;;;9.47;100.00;98762.66;4968843;28;20389;-78
2023/01/15 01:49:43;;;;;;;10.68;3.03;;;9.50;99.90;;;9.48;100.00;98756.47;4975418;28;20378;-78
2023/01/15 01:52:17;;;;;;;8.18;2.50;;;9.50;99.90;;;9.48;100.00;98754.72;4975925;28;20253;-78
2023/01/15 01:54:48;;;;;;;10.40;2.92;;;9.50;99.90;;;9.51;100.00;98756.44;4967692;28;20265;-78
2023/01/15 01:57:17;;;;;;;9.75;2.90;;;9.50;99.90;;;9.51;100.00;98767.88;4959663;28;20233;-79
2023/01/15 01:59:45;;;;;;;10.88;3.22;;;9.50;99.90;;;9.50;100.00;98766.13;4968973;28;20243;-77
2023/01/15 02:02:13;;;;;;;8.60;2.50;;;9.50;99.90;;;9.53;100.00;98759.94;4959684;28;20330;-77
2023/01/15 02:04:40;;;;;;;10.07;2.90;;;9.50;99.90;;;9.52;100.00;98766.09;4973711;28;20289;-77
2023/01/15 02:07:08;;;;;;;7.20;2.17;;;9.50;99.90;;;9.53;100.00;98754.66;4966897;28;20261;-77
2023/01/15 02:09:35;;;;;;;7.78;2.40;;;9.50;99.90;;;9.54;100.00;98762.53;4974315;28;20292;-78
2023/01/15 02:12:32;;;;;;;8.52;2.60;;;9.50;99.90;;;9.54;100.00;98753.75;4975994;28;20236;-76
2023/01/15 02:15:08;;;;;;;6.10;1.92;;;9.50;99.90;;;9.53;100.00;98758.16;4966510;28;20257;-78
2023/01/15 02:17:43;;;;;;;36.60;10.00;;;9.50;99.90;;;9.52;100.00;98760.81;4938816;28;20403;-77
2023/01/15 02:20:55;;;;;;;7.35;2.35;;;9.50;99.90;;;9.53;100.00;98760.78;4963402;28;20237;-77
2023/01/15 02:23:41;;;;;;;7.70;2.40;;;9.50;99.90;;;9.55;100.00;98764.28;4965485;28;20276;-76
2023/01/15 02:26:42;;;;;;;8.30;2.40;;;9.50;99.90;;;9.56;100.00;98771.31;4967117;28;20320;-76
2023/01/15 02:29:16;;;;;;;7.97;2.38;;;9.50;99.90;;;9.56;100.00;98781.88;4972176;28;20264;-76
2023/01/15 02:31:49;;;;;;;7.53;2.40;;;9.50;99.90;;;9.56;100.00;98786.28;4973544;28;20286;-76
2023/01/15 02:34:22;;;;;;;7.80;2.33;;;9.50;99.90;;;9.55;100.00;98784.53;4968033;28;20240;-76
2023/01/15 02:37:01;;;;;;;11.50;3.25;;;9.50;99.90;;;9.60;100.00;98794.13;4966231;28;20300;-76
2023/01/15 02:39:30;;;;;;;10.43;3.45;;;9.50;99.90;;;9.96;100.00;98807.72;4973479;28;20276;-77
2023/01/15 02:42:01;;;;;;;10.18;2.88;;;9.90;99.90;;;10.15;100.00;98838.22;4964701;28;20261;-77
2023/01/15 02:44:31;;;;;;;10.75;2.90;;;10.20;99.90;;;10.31;100.00;98873.25;4970768;28;20225;-78
2023/01/15 02:46:59;;;;;;;11.57;3.42;;;10.30;99.90;;;10.32;100.00;98903.19;4974835;28;20233;-76
2023/01/15 02:49:27;;;;;;;11.43;3.28;;;10.30;99.90;;;10.26;100.00;98909.44;4962675;28;20229;-76
2023/01/15 02:52:09;;;;;;;7.15;2.20;;;10.30;99.90;;;10.06;100.00;98927.28;4963987;28;20247;-78
2023/01/15 02:54:52;;;;;;;6.50;1.98;;;10.10;99.90;;;9.92;100.00;98954.75;4965734;28;20269;-77
2023/01/15 02:57:21;;;;;;;7.38;2.30;;;10.00;99.90;;;9.86;100.00;98962.75;4965493;28;20740;-77
2023/01/15 02:59:49;;;;;;;6.10;1.90;;;9.90;99.90;;;9.73;100.00;98969.03;4962763;28;20308;-77
2023/01/15 03:02:22;;;;;;;6.25;2.00;;;9.70;99.90;;;9.65;100.00;98980.56;4963581;28;20226;-77
2023/01/15 03:04:58;;;;;;;7.30;2.30;;;9.70;99.90;;;9.65;100.00;99004.34;4966875;28;20240;-77
2023/01/15 03:07:34;;;;;;;8.15;2.40;;;9.60;99.90;;;9.63;100.00;99013.13;4980042;28;20332;-77
2023/01/15 03:10:03;;;;;;;7.32;2.15;;;9.60;99.90;;;9.62;100.00;99029.00;4953965;28;20262;-77
2023/01/15 03:13:01;;;;;;;9.10;2.70;;;9.60;99.90;;;9.50;100.00;99039.66;4968566;28;20225;-77
2023/01/15 03:19:26;;;;;;;7.82;2.38;;;9.40;99.90;;;9.36;100.00;99054.72;4972472;28;20239;-77
2023/01/15 03:22:23;;;;;;;7.63;2.40;;;9.40;99.90;;;9.37;100.00;99053.84;4964140;28;20297;-76
2023/01/15 03:25:08;;;;;;;9.32;2.65;;;9.40;99.90;;;9.27;100.00;99045.13;4963188;28;20293;-77
2023/01/15 03:27:35;;;;;;;7.88;2.45;;;9.30;99.90;;;9.27;100.00;99059.19;4960263;28;20660;-77
2023/01/15 03:30:13;;;;;;;8.18;2.42;;;9.30;99.90;;;9.20;100.00;99056.63;4961868;28;20234;-77
2023/01/15 03:32:40;;;;;;;7.15;2.17;;;9.20;99.90;;;9.16;100.00;99054.88;4981048;28;20256;-77
2023/01/15 03:35:57;;;;;;;7.00;2.13;;;9.20;99.90;;;9.10;100.00;99041.72;4969478;28;20232;-77
2023/01/15 03:38:32;;;;;;;6.30;2.00;;;9.10;99.90;;;8.89;100.00;99043.63;4967174;28;20673;-77
2023/01/15 03:41:25;;;;;;;7.45;2.20;;;9.00;99.90;;;8.57;100.00;99035.91;4964320;28;20304;-77
2023/01/15 03:44:06;;;;;;;9.68;2.75;;;8.70;99.90;;;8.57;100.00;99045.56;4961741;28;20225;-77
2023/01/15 03:47:20;;;;;;;10.20;2.88;;;8.60;99.90;;;8.56;100.00;99049.97;4957997;28;20295;-77
2023/01/15 03:50:03;;;;;;;7.68;2.20;;;8.60;99.90;;;8.56;100.00;99042.06;4960711;28;20334;-77
2023/01/15 03:52:49;;;;;;;6.13;1.95;;;8.50;99.90;;;8.50;100.00;99042.09;4966783;28;20304;-77
2023/01/15 03:55:54;;;;;;;7.00;2.08;;;8.50;99.90;;;8.44;100.00;99041.25;4964367;28;20240;-77
2023/01/15 03:58:47;;;;;;;5.53;1.77;;;8.50;99.90;;;8.38;100.00;99039.50;4967633;28;20296;-77
2023/01/15 04:01:27;;;;;;;5.95;1.88;;;8.40;99.90;;;8.29;100.00;99039.53;4959194;28;20319;-77
2023/01/15 04:03:55;;;;;;;8.98;2.67;;;8.30;99.90;;;8.21;100.00;99033.41;4962058;28;20232;-77
2023/01/15 04:06:25;;;;;;;5.78;1.83;;;8.30;99.90;;;8.22;100.00;99032.53;4975205;28;20233;-77
2023/01/15 04:08:54;;;;;;;5.82;1.75;;;8.20;99.90;;;8.21;100.00;99038.66;4972139;28;20244;-77
2023/01/15 04:11:24;;;;;;;6.22;1.77;;;8.20;99.90;;;8.15;100.00;99028.16;4953928;28;20237;-77
2023/01/15 04:13:51;;;;;;;5.53;1.73;;;8.20;99.90;;;8.12;100.00;99038.72;4970809;28;20283;-77
2023/01/15 04:16:29;;;;;;;8.60;2.65;;;8.20;99.90;;;8.12;100.00;99042.22;4964463;28;20261;-77
2023/01/15 04:18:56;;;;;;;5.70;1.83;;;8.10;99.90;;;8.11;100.00;99040.47;4963245;28;20336;-77
2023/01/15 04:21:23;;;;;;;9.00;2.80;;;8.10;99.90;;;8.03;100.00;99043.13;4966359;28;20666;-78
2023/01/15 04:23:51;;;;;;;8.05;2.45;;;8.10;99.90;;;8.05;100.00;99043.13;4966214;28;20283;-76
2023/01/15 04:26:18;;;;;;;7.45;2.22;;;8.10;99.90;;;7.98;100.00;99046.66;4967031;28;20692;-77
2023/01/15 04:28:45;;;;;;;6.85;2.08;;;8.00;99.90;;;7.92;100.00;99044.91;4951084;28;20288;-77
2023/01/15 04:31:12;;;;;;;7.55;2.20;;;8.00;99.90;;;7.86;100.00;99042.28;4962978;28;20252;-78
2023/01/15 04:33:40;;;;;;;6.72;2.15;;;7.90;99.90;;;7.93;100.00;99051.06;4962767;28;20239;-77
2023/01/15 04:36:10;;;;;;;8.02;2.42;;;7.90;99.90;;;7.86;100.00;99044.06;4966702;28;20261;-77
2023/01/15 04:38:37;;;;;;;7.22;2.15;;;7.90;99.90;;;7.78;100.00;99051.94;4966705;28;20275;-78
2023/01/15 04:44:06;;;;;;;10.60;3.22;;;7.80;99.90;;;7.65;100.00;99037.91;4961948;28;20253;-77
2023/01/15 04:46:41;;;;;;;8.23;2.20;;;7.70;99.90;;;7.68;100.00;99051.06;4964599;28;20258;-78
2023/01/15 04:49:17;;;;;;;9.07;2.78;;;7.70;99.90;;;7.69;100.00;99060.72;4964866;28;20248;-78
2023/01/15 04:51:45;;;;;;;6.80;2.13;;;7.70;99.90;;;7.70;100.00;99078.25;4970694;28;20279;-78
2023/01/15 04:54:14;;;;;;;9.27;2.88;;;7.70;99.90;;;7.61;100.00;99080.91;4965406;28;20315;-78
2023/01/15 04:56:46;;;;;;;6.53;2.00;;;7.70;99.90;;;7.57;100.00;99088.78;4947807;28;20237;-78
2023/01/15 04:59:17;;;;;;;5.55;1.73;;;7.70;99.90;;;7.65;100.00;99092.28;4961040;28;20257;-78
2023/01/15 05:01:44;;;;;;;8.95;2.58;;;7.70;99.90;;;7.68;100.00;99095.78;4986272;28;20279;-78
2023/01/15 05:04:29;;;;;;;7.35;2.25;;;7.70;99.90;;;7.61;100.00;99108.94;4971553;28;20244;-78
2023/01/15 05:06:57;;;;;;;6.40;1.95;;;7.60;99.90;;;7.56;100.00;99116.84;4974592;28;20260;-78
2023/01/15 05:09:24;;;;;;;8.35;2.50;;;7.60;99.90;;;7.55;100.00;99104.56;4981262;28;20288;-77
2023/01/15 05:11:50;;;;;;;9.65;2.63;;;7.60;99.90;;;7.56;100.00;99106.31;4976048;28;20620;-77
2023/01/15 05:14:18;;;;;;;6.00;1.90;;;7.60;99.90;;;7.53;100.00;99101.06;4980461;28;20256;-77
2023/01/15 05:16:45;;;;;;;6.03;1.80;;;7.50;99.90;;;7.51;100.00;99102.81;4974908;28;20298;-76
2023/01/15 05:19:11;;;;;;;6.03;1.90;;;7.50;99.90;;;7.37;100.00;99107.19;4966262;28;20257;-77
2023/01/15 05:21:43;;;;;;;9.82;2.85;;;7.40;99.90;;;7.39;100.00;99102.81;4968529;28;20253;-77
2023/01/15 05:24:16;;;;;;;8.20;2.40;;;7.50;99.90;;;7.34;100.00;99099.31;4968492;28;20225;-77
2023/01/15 05:26:44;;;;;;;5.82;1.75;;;7.40;99.90;;;7.29;100.00;99114.22;4969426;28;20225;-77
2023/01/15 05:29:12;;;;;;;6.55;2.00;;;7.40;99.90;;;7.24;100.00;99126.47;4968878;28;20764;-78
2023/01/15 05:31:41;;;;;;;10.02;2.95;;;7.30;99.90;;;7.22;100.00;99128.22;4966812;28;20225;-77
2023/01/15 05:34:09;;;;;;;8.15;2.47;;;7.30;99.90;;;7.21;100.00;99142.25;4966562;28;20233;-77
2023/01/15 05:36:36;;;;;;;8.23;2.45;;;7.20;99.90;;;7.18;100.00;99155.38;4954016;28;20241;-77
2023/01/15 05:39:04;;;;;;;7.25;2.15;;;7.20;99.90;;;7.17;100.00;99161.50;4972603;28;20232;-77
2023/01/15 05:41:49;;;;;;;7.65;2.20;;;7.20;99.90;;;7.15;100.00;99169.41;4974248;28;20229;-77
2023/01/15 05:44:23;;;;;;;9.38;2.67;;;7.20;99.90;;;7.10;100.00;99175.53;4973640;28;20220;-77
2023/01/15 05:46:53;;;;;;;7.00;2.10;;;7.10;99.90;;;7.14;100.00;99188.66;4970849;28;20237;-77
2023/01/15 05:49:24;;;;;;;9.55;2.70;;;7.10;99.90;;;7.06;100.00;99175.50;4966641;28;20281;-77
2023/01/15 05:51:52;;;;;;;6.63;2.00;;;7.10;99.90;;;7.12;100.00;99168.50;4981548;28;20234;-78
2023/01/15 05:54:27;;;;;;;7.30;2.20;;;7.20;99.90;;;7.09;100.00;99169.38;4968839;28;20245;-77
2023/01/15 05:56:55;;;;;;;6.40;1.98;;;7.10;99.90;;;7.04;100.00;99165.88;4970400;28;20330;-77
2023/01/15 05:59:25;;;;;;;7.05;2.15;;;7.10;99.90;;;6.99;100.00;99176.34;4964562;28;20253;-78
2023/01/15 06:01:54;;;;;;;9.13;2.55;;;7.00;99.90;;;6.96;100.00;99186.88;4972215;28;20233;-77
2023/01/15 06:04:23;;;;;;;6.72;2.03;;;7.00;99.90;;;6.93;100.00;99186.84;4977668;28;20304;-77
2023/01/15 06:06:53;;;;;;;7.60;2.25;;;7.00;99.90;;;6.88;100.00;99188.59;4964511;28;20251;-77
2023/01/15 06:09:21;;;;;;;9.25;2.72;;;6.90;99.90;;;6.85;100.00;99203.47;4975552;28;20240;-78
2023/01/15 06:11:50;;;;;;;6.25;1.92;;;6.90;99.90;;;6.88;100.00;99222.75;4973002;28;20271;-78
2023/01/15 06:14:17;;;;;;;9.48;2.85;;;6.90;99.90;;;6.82;100.00;99227.97;4974949;28;20237;-77
2023/01/15 06:16:44;;;;;;;10.02;2.80;;;6.90;99.90;;;6.85;100.00;99229.75;4968781;28;20249;-77
2023/01/15 06:19:12;;;;;;;7.70;2.22;;;6.90;99.90;;;6.80;100.00;99221.84;4964360;28;20239;-77
2023/01/15 06:21:40;;;;;;;9.52;2.70;;;6.90;99.90;;;6.78;100.00;99210.44;4979744;28;20278;-77
2023/01/15 06:24:08;;;;;;;7.97;2.35;;;6.90;99.90;;;6.79;100.00;99233.22;4969220;28;20269;-78
2023/01/15 06:26:36;;;;;;;11.68;3.28;;;6.80;99.90;;;6.79;100.00;99232.34;4962818;28;20269;-77
2023/01/15 06:29:03;;;;;;;8.60;2.30;;;6.80;99.90;;;6.76;100.00;99227.06;4965916;28;20229;-77
2023/01/15 06:31:31;;;;;;;11.15;3.13;;;6.80;99.90;;;6.70;100.00;99209.53;4961179;28;20233;-77
2023/01/15 06:33:58;;;;;;;9.38;2.67;;;6.70;99.90;;;6.65;100.00;99206.00;4964312;28;20240;-77
2023/01/15 06:36:26;;;;;;;11.43;3.30;;;6.70;99.90;;;6.60;100.00;99212.97;4967417;28;20236;-77
2023/01/15 06:38:54;;;;;;;8.82;2.47;;;6.70;99.90;;;6.62;100.00;99214.75;4961322;28;20408;-77
2023/01/15 06:47:19;;;;;;;8.27;2.35;;;6.60;99.90;;;6.58;100.00;99228.72;4977597;28;20245;-77
2023/01/15 06:49:49;;;;;;;7.90;2.30;;;6.60;99.90;;;6.56;100.00;99240.97;4968079;28;20272;-76
2023/01/15 06:52:16;;;;;;;6.57;1.90;;;6.60;99.90;;;6.53;100.00;99224.31;4978982;28;20232;-77
2023/01/15 06:54:43;;;;;;;7.10;2.08;;;6.60;99.90;;;6.52;100.00;99233.94;4970370;28;20315;-76
2023/01/15 06:57:10;;;;;;;7.70;2.30;;;6.60;99.90;;;6.46;100.00;99233.88;4970766;28;20232;-76
2023/01/15 06:59:38;;;;;;;9.82;2.67;;;6.50;99.90;;;6.42;100.00;99248.72;4963918;28;20233;-77
2023/01/15 07:02:05;;;;;;;10.48;2.97;;;6.50;99.90;;;6.45;100.00;99252.25;4968183;28;20264;-77
2023/01/15 07:04:32;;;;;;;8.32;2.38;;;6.50;99.90;;;6.37;100.00;99258.31;4967442;28;20308;-77
2023/01/15 07:06:59;;;;;;;7.75;2.20;;;6.40;99.90;;;6.35;100.00;99273.19;4972159;28;20273;-78
2023/01/15 07:09:26;;;;;;;8.80;2.45;;;6.40;99.90;;;6.30;100.00;99282.78;4969799;28;20230;-80
2023/01/15 07:11:53;;;;;;;25.17;6.80;;;6.40;99.90;;;6.26;100.00;99278.38;4964058;28;20229;-76
2023/01/15 07:14:26;;;;;;;10.23;2.95;;;6.30;99.90;;;6.25;100.00;99310.75;4961377;28;20405;-77
2023/01/15 07:16:54;;;;;;;7.90;2.25;;;6.30;99.90;;;6.23;100.00;99301.97;4966162;28;20297;-78
2023/01/15 07:19:21;;;;;;;7.53;2.13;;;6.30;99.90;;;6.16;100.00;99302.78;4967408;28;20301;-77
2023/01/15 07:21:49;;;;;;;8.25;2.25;;;6.20;99.90;;;6.14;100.00;99311.53;4962670;28;20297;-77
2023/01/15 07:24:16;;;;;;;7.35;2.13;;;6.20;99.90;;;6.06;100.00;99309.72;4968376;28;21001;-78
2023/01/15 07:26:46;;;;;;;7.00;2.05;;;6.20;99.90;;;5.99;100.00;99296.53;4965906;28;20230;-77
2023/01/15 07:29:13;;;;;;;9.90;2.83;;;6.10;99.90;;;6.00;100.00;99308.78;4970725;28;20296;-77
2023/01/15 07:31:40;;;;;;;7.53;2.13;;;6.00;99.90;;;5.96;100.00;99289.50;4971276;28;20268;-77
2023/01/15 07:34:08;;;;;;;9.27;2.53;;;6.00;99.90;;;5.97;100.00;99291.25;4961913;28;20249;-76
2023/01/15 07:36:36;;;;;;;12.13;3.53;;;6.00;99.90;;;5.92;100.00;99298.22;4961302;28;20319;-77
2023/01/15 07:39:04;;;;;;;12.98;3.58;;;6.00;99.90;;;5.92;100.00;99297.31;4963061;28;20288;-76
2023/01/15 07:50:14;;;;;;;9.05;2.63;;;5.90;99.90;;;5.78;100.00;99328.63;4967048;28;20239;-78
2023/01/15 07:52:41;;;;;;;7.35;2.13;;;5.90;99.90;;;5.76;100.00;99328.63;4967995;28;20225;-79
2023/01/15 07:55:11;;;;;;;5.07;1.60;;;5.80;99.90;;;5.73;100.00;99336.47;4964388;28;20233;-77
2023/01/15 07:57:42;;;;;;;7.70;2.28;;;5.80;99.90;;;5.73;100.00;99340.81;4961750;28;20545;-77
2023/01/15 08:00:19;;;;;;;8.23;2.35;;;5.80;99.90;;;5.72;100.00;99334.69;4963510;28;20241;-77
2023/01/15 08:02:49;;;;;;;12.90;3.60;;;5.80;99.90;;;5.72;100.00;99342.56;4961100;28;20292;-78
2023/01/15 08:05:17;;;;;;;8.93;2.65;;;5.80;99.90;;;5.69;100.00;99346.91;4960180;28;20241;-77
2023/01/15 08:07:45;;;;;;;17.60;5.10;;;5.80;99.90;;;5.58;100.00;99340.66;4958513;28;20252;-77
2023/01/15 08:10:13;;;;;;;7.10;2.15;;;5.70;99.90;;;5.59;100.00;99338.06;4960973;28;20252;-79
2023/01/15 08:15:29;;;;;;;7.70;2.25;;;5.70;99.90;;;5.58;100.00;99343.28;4965328;28;20336;-79
2023/01/15 08:17:57;;;;;;;12.23;3.50;;;5.70;99.90;;;5.51;100.00;99344.06;4959374;28;20241;-78
2023/01/15 08:20:26;;;;;;;8.75;2.55;;;5.50;99.90;;;5.49;100.00;99348.41;4960507;28;20252;-78
2023/01/15 08:22:53;;;;;;;11.50;3.42;;;5.60;99.90;;;5.46;100.00;99347.53;4961152;28;20248;-78
2023/01/15 08:25:24;;;;;;;10.10;2.95;;;5.60;99.90;;;5.47;100.00;99346.66;4959801;28;21011;-77
2023/01/15 08:27:52;;;;;;;10.10;2.92;;;5.50;99.90;;;5.50;100.00;99351.06;4959199;28;20328;-78
2023/01/15 08:30:23;;;;;;;10.10;2.88;;;5.60;99.90;;;5.47;100.00;99356.25;4961452;28;20232;-79
2023/01/15 08:32:51;;;;;;;9.50;2.78;;;5.60;99.90;;;5.46;100.00;99365.88;4962608;28;20249;-79
2023/01/15 08:35:18;;;;;;;8.45;2.55;;;5.70;99.90;;;5.45;100.00;99363.22;4961476;28;20231;-81
2023/01/15 08:37:45;;;;;;;10.02;2.92;;;5.50;99.90;;;5.47;100.00;99358.88;4959317;28;20284;-81
2023/01/15 08:40:12;;;;;;;10.77;2.97;;;5.50;99.90;;;5.55;100.00;99351.13;4966358;28;20252;-83
2023/01/15 08:42:39;;;;;;;11.20;3.28;;;5.60;99.90;;;5.59;100.00;99387.00;4965896;28;20240;-80
2023/01/15 08:45:08;;;;;;;9.32;2.70;;;5.60;99.90;;;5.57;100.00;99380.84;4973803;28;20264;-81
2023/01/15 08:47:36;;;;;;;14.82;4.07;;;5.60;99.90;;;5.62;100.00;99377.44;4964029;28;20296;-81
2023/01/15 08:50:06;;;;;;;8.15;2.35;;;5.70;99.90;;;5.65;100.00;99380.09;4968572;28;20233;-82
2023/01/15 08:52:33;;;;;;;16.13;4.43;;;5.70;99.90;;;5.69;100.00;99383.63;4963126;28;20295;-82
2023/01/15 08:55:00;;;;;;;10.15;2.85;;;5.80;99.90;;;5.74;100.00;99380.19;4970843;28;20233;-82
2023/01/15 08:57:27;;;;;;;13.88;3.75;;;5.80;99.90;;;5.87;100.00;99394.31;4963935;28;20317;-83
2023/01/15 08:59:54;;;;;;;12.10;3.38;;;5.90;99.90;;;5.86;100.00;99408.31;4964921;28;20234;-82
2023/01/15 09:02:21;;;;;;;11.40;3.28;;;5.90;99.90;;;5.87;100.00;99398.69;4962926;28;20343;-79
2023/01/15 09:04:48;;;;;;;9.18;2.78;;;5.90;99.90;;;5.86;100.00;99418.81;4964673;28;20241;-82
2023/01/15 09:07:15;;;;;;;9.85;2.85;;;5.90;99.90;;;5.83;100.00;99429.25;4967712;28;20242;-81
2023/01/15 09:09:45;;;;;;;12.90;3.60;;;5.90;99.90;;;5.84;100.00;99432.75;4967260;28;20245;-82
2023/01/15 09:12:13;;;;;;;13.18;3.67;;;5.90;99.90;;;5.85;100.00;99426.66;4966930;28;20256;-82
2023/01/15 09:14:40;;;;;;;15.48;4.30;;;5.90;99.90;;;5.81;100.00;99438.84;4961639;28;20236;-79
2023/01/15 09:20:11;;;;;;;19.85;5.40;;;5.90;99.90;;;5.79;100.00;99433.59;4970804;23;20287;-77
2023/01/15 09:22:38;;;;;;;12.35;3.42;;;5.90;99.90;;;5.78;100.00;99436.19;4973897;28;20248;-75
2023/01/15 09:25:06;;;;;;;10.70;3.00;;;5.80;99.90;;;5.84;100.00;99446.75;4975173;28;20243;-77
2023/01/15 09:27:34;;;;;;;16.95;4.53;;;5.90;99.90;;;5.86;100.00;99437.16;4972714;28;20287;-77
2023/01/15 09:30:01;;;;;;;11.27;3.17;;;5.90;99.90;;;5.85;100.00;99459.03;4960378;28;20249;-77
2023/01/15 09:32:28;;;;;;;11.05;3.03;;;5.90;99.90;;;5.88;100.00;99450.31;4960099;28;20233;-77
2023/01/15 09:34:55;;;;;;;10.63;3.03;;;5.90;99.90;;;5.86;100.00;99452.91;4966839;28;20276;-77
2023/01/15 09:37:22;;;;;;;13.77;4.07;;;5.90;99.90;;;5.88;100.00;99469.56;4957436;28;20288;-77
2023/01/15 09:39:49;;;;;;;9.70;2.78;;;5.90;99.90;;;5.89;100.00;99478.31;4960454;28;20237;-78
2023/01/15 09:42:46;;;;;;;14.15;3.97;;;5.90;99.90;;;5.93;100.00;99474.88;4962358;28;20311;-78
2023/01/15 09:45:47;;;;;;;15.02;4.05;;;6.00;99.90;;;5.91;100.00;99474.00;4957910;28;20229;-78
2023/01/15 09:48:19;;;;;;;12.20;3.45;;;6.00;99.90;;;5.93;100.00;99486.25;4960955;28;20229;-77
2023/01/15 09:51:04;;;;;;;6.53;1.95;;;6.00;99.90;;;5.97;100.00;99480.19;4961885;28;20241;-77
2023/01/15 09:54:16;;;;;;;13.27;3.55;;;6.00;99.90;;;6.00;100.00;99481.97;4961083;28;20717;-78
2023/01/15 09:56:45;;;;;;;10.40;2.80;;;6.10;99.90;;;6.03;100.00;99487.25;4955479;28;20225;-78
2023/01/15 09:59:28;;;;;;;10.77;2.95;;;6.10;99.90;;;6.14;100.00;99477.75;4962074;28;20265;-78
2023/01/15 10:01:55;;;;;;;9.60;2.67;;;6.20;99.90;;;6.11;100.00;99480.34;4963084;28;20362;-78
2023/01/15 10:04:36;;;;;;;12.02;3.30;;;6.20;99.90;;;6.09;100.00;99476.84;4958992;28;20265;-77
2023/01/15 10:07:33;;;;;;;8.65;2.38;;;6.20;99.90;;;6.11;100.00;99472.47;4966821;28;20240;-78
2023/01/15 10:10:11;;;;;;;13.73;3.92;;;6.20;99.90;;;6.10;100.00;99484.72;4948359;28;20234;-76
2023/01/15 10:12:39;;;;;;;16.23;4.43;;;6.20;99.90;;;6.10;100.00;99479.47;4955446;28;20246;-79
2023/01/15 10:15:11;;;;;;;15.25;4.28;;;6.20;99.90;;;6.14;100.00;99485.63;4956499;28;20236;-78
2023/01/15 10:17:52;;;;;;;15.93;4.43;;;6.20;99.90;;;6.13;100.00;99483.00;4958229;28;20291;-78
2023/01/15 10:20:50;;;;;;;16.02;4.43;;;6.20;99.90;;;6.21;98.85;99470.84;4954707;28;20256;-80
2023/01/15 10:24:05;;;;;;;15.43;4.22;;;6.30;99.90;;;6.15;98.08;99453.28;4954646;28;20233;-77
2023/01/15 10:26:45;;;;;;;13.68;3.92;;;6.20;99.90;;;6.10;98.66;99465.47;4954455;28;20311;-79
2023/01/15 10:29:51;;;;;;;12.68;3.67;;;6.20;99.90;;;6.08;99.07;99475.06;4952123;28;20336;-78
2023/01/15 10:32:28;;;;;;;10.77;3.13;;;6.10;99.90;;;6.04;100.00;99476.78;4971401;28;20283;-80
2023/01/15 10:35:08;;;;;;;15.95;4.47;;;6.10;99.90;;;6.04;100.00;99483.78;4959970;28;20261;-82
2023/01/15 10:37:49;;;;;;;9.38;2.78;;;6.10;99.90;;;6.05;99.42;99488.16;4959561;28;20272;-84
2023/01/15 10:40:59;;;;;;;8.60;2.50;;;6.10;99.90;;;6.06;99.37;99482.03;4961740;28;20236;-81
2023/01/15 10:43:50;;;;;;;12.48;3.53;;;6.10;99.90;;;6.04;99.43;99473.28;4955916;28;20241;-79
2023/01/15 10:46:28;;;;;;;7.72;2.30;;;6.10;99.90;;;6.05;98.81;99470.66;4959684;28;20324;-79
2023/01/15 10:49:02;;;;;;;14.70;4.20;;;6.10;99.90;;;6.06;98.80;99484.66;4954747;28;20229;-78
2023/01/15 10:51:46;;;;;;;18.75;5.05;;;6.10;99.90;;;6.02;99.20;99473.25;4955602;28;20237;-79
2023/01/15 10:54:43;;;;;;;10.57;3.08;;;6.10;99.90;;;6.10;98.02;99475.97;4952880;28;20253;-78
2023/01/15 10:57:35;;;;;;;9.13;2.60;;;6.20;99.90;;;6.03;98.62;99471.50;4959580;28;20232;-79
2023/01/15 11:00:10;;;;;;;17.23;4.28;;;6.10;99.90;;;5.99;99.52;99472.34;4958427;28;20229;-78
2023/01/15 11:02:46;;;;;;;25.55;6.00;;;6.00;99.90;;;6.01;99.98;99491.59;4956191;28;20229;-80
2023/01/15 11:05:20;;;;;;;11.13;3.00;;;6.00;99.90;;;6.07;98.13;99484.69;4952034;28;20292;-79
2023/01/15 11:07:51;;;;;;;19.60;5.18;;;6.10;99.90;;;6.07;97.84;99471.56;4955041;28;20221;-79
2023/01/15 11:10:39;;;;;;;18.70;4.95;;;6.10;99.90;;;6.06;97.72;99472.44;4950127;28;20293;-79
2023/01/15 11:19:44;;;;;;;12.40;3.25;;;6.10;99.90;;;6.01;98.17;99476.75;4948598;28;20240;-80
2023/01/15 11:22:17;;;;;;;10.13;2.83;;;6.10;99.90;;;6.01;98.19;99476.75;4958892;28;20287;-79
2023/01/15 11:24:59;;;;;;;9.55;2.67;;;6.10;99.90;;;6.00;99.27;99482.84;4964489;28;20236;-78
2023/01/15 11:27:30;;;;;;;16.85;4.13;;;6.10;99.90;;;6.05;97.68;99477.66;4978452;28;20271;-78